Terminal Aerodrome Forecast
Issued by NWS Cleveland, OH

Home | Current Version | Previous Version | Text Only | Print | Product List | Glossary On
Versions: 1 2 3 4 5 6 7 8 9 10 11 12 13 14 15
000
FTUS41 KCLE 250902 AAA
TAFYNG
TAF AMD
KYNG 250902Z 2509/2606 10007KT P6SM -SHRA SCT025 OVC035
      TEMPO 2509/2512 5SM -SHRA BR OVC025
     FM251200 07004KT 5SM -SHRA BR OVC025
      TEMPO 2512/2515 2SM -SHRA BR OVC008
     FM251500 33005KT 4SM BR OVC008
     FM251800 33008KT 2SM BR OVC015
     FM252100 32011KT 6SM BR OVC025
     FM260300 32007KT P6SM BKN015=

USA.gov is the U.S. government's official web portal to all federal, state and local government web resources and services.